Time;durP1;ratioP1;P1;durP2;ratioP2;P2;SDS_P1;SDS_P2;PMS_P1;PMS_P2;Temp;Humidity;BMP_temperature;BMP_pressure;BME280_temperature;BME280_humidity;BME280_pressure;Samples;Min_cycle;Max_cycle;Signal;HPM_P1;HPM_P2
2021/07/04 00:00:08;;;;;;;16.07;14.97;;;18.70;99.90;;;;;;5110090;28;20452;-74
2021/07/04 00:02:35;;;;;;;15.70;14.80;;;18.70;99.90;;;;;;5110469;28;20425;-74
2021/07/04 00:05:05;;;;;;;16.70;15.80;;;18.60;99.90;;;;;;5110438;28;20446;-73
2021/07/04 00:07:31;;;;;;;17.07;16.00;;;18.60;99.90;;;;;;5110130;28;20481;-75
2021/07/04 00:09:58;;;;;;;17.40;16.40;;;18.60;99.90;;;;;;5110124;28;20444;-76
2021/07/04 00:12:25;;;;;;;17.03;15.87;;;18.70;99.90;;;;;;5110155;28;20449;-75
2021/07/04 00:14:51;;;;;;;18.37;17.17;;;18.60;99.90;;;;;;5109950;28;20449;-75
2021/07/04 00:17:18;;;;;;;18.73;17.57;;;18.50;99.90;;;;;;5109901;28;20445;-75
2021/07/04 00:19:45;;;;;;;18.33;16.93;;;18.50;99.90;;;;;;5110232;28;20453;-75
2021/07/04 00:22:13;;;;;;;19.27;17.97;;;18.60;99.90;;;;;;5109703;28;20446;-75
2021/07/04 00:24:39;;;;;;;18.47;17.37;;;18.50;99.90;;;;;;5109748;28;20449;-74
2021/07/04 00:27:06;;;;;;;19.27;18.07;;;18.50;99.90;;;;;;5109739;28;20473;-75
2021/07/04 00:29:33;;;;;;;17.47;16.57;;;18.50;99.90;;;;;;5109932;28;20453;-75
2021/07/04 00:31:59;;;;;;;19.23;18.13;;;18.50;99.90;;;;;;5111151;28;20448;-74
2021/07/04 00:34:26;;;;;;;19.03;17.83;;;18.60;99.90;;;;;;5113710;28;20452;-75
2021/07/04 00:36:53;;;;;;;19.47;18.20;;;18.70;99.90;;;;;;5113797;28;20855;-75
2021/07/04 00:39:21;;;;;;;19.30;18.17;;;18.60;99.90;;;;;;5113727;28;20510;-76
2021/07/04 00:41:47;;;;;;;18.90;17.80;;;18.60;99.90;;;;;;5113646;28;20449;-75
2021/07/04 00:44:14;;;;;;;19.13;18.00;;;18.70;99.90;;;;;;5113806;28;20449;-75
2021/07/04 00:46:41;;;;;;;17.53;16.37;;;18.70;99.90;;;;;;5113194;28;20485;-76
2021/07/04 00:49:07;;;;;;;16.70;15.80;;;18.60;99.90;;;;;;5113084;28;20452;-77
2021/07/04 00:51:34;;;;;;;17.10;16.10;;;18.50;99.90;;;;;;5113418;28;20498;-75
2021/07/04 00:54:01;;;;;;;17.87;16.67;;;18.60;99.90;;;;;;5113556;28;20472;-75
2021/07/04 00:56:29;;;;;;;18.17;17.17;;;18.60;99.90;;;;;;5113289;28;20437;-75
2021/07/04 00:58:56;;;;;;;16.47;15.57;;;18.60;99.90;;;;;;5113344;28;20450;-75
2021/07/04 01:01:23;;;;;;;17.87;16.77;;;18.60;99.90;;;;;;5112994;28;21027;-75
2021/07/04 01:03:49;;;;;;;19.07;17.90;;;18.40;99.90;;;;;;5113218;28;20467;-75
2021/07/04 01:06:16;;;;;;;18.63;17.63;;;18.40;99.90;;;;;;5113460;28;20452;-75
2021/07/04 01:08:43;;;;;;;19.40;18.20;;;18.30;99.90;;;;;;5113289;28;20457;-75
2021/07/04 01:11:09;;;;;;;18.30;17.30;;;18.30;99.90;;;;;;5112870;28;20448;-75
2021/07/04 01:13:37;;;;;;;18.97;17.90;;;18.30;99.90;;;;;;5112795;28;20446;-75
2021/07/04 01:16:05;;;;;;;19.20;17.80;;;18.30;99.90;;;;;;5112772;28;20450;-75
2021/07/04 01:18:31;;;;;;;20.30;19.10;;;18.30;99.90;;;;;;5113035;28;20445;-75
2021/07/04 01:20:59;;;;;;;18.70;17.60;;;18.20;99.90;;;;;;5113246;28;20463;-76
2021/07/04 01:23:27;;;;;;;18.97;17.87;;;18.30;99.90;;;;;;5112619;28;20449;-75
2021/07/04 01:25:56;;;;;;;20.33;18.97;;;18.30;99.90;;;;;;5112508;28;20502;-75
2021/07/04 01:28:23;;;;;;;19.13;17.93;;;18.20;99.90;;;;;;5112448;28;20488;-77
2021/07/04 01:30:53;;;;;;;19.73;18.60;;;18.30;99.90;;;;;;5112612;28;20449;-76
2021/07/04 01:33:20;;;;;;;20.93;19.27;;;18.30;99.90;;;;;;5112450;28;20448;-76
2021/07/04 01:35:47;;;;;;;21.07;19.77;;;18.30;99.90;;;;;;5112901;28;20452;-76
2021/07/04 01:38:14;;;;;;;19.70;18.60;;;18.20;99.90;;;;;;5112581;28;20442;-76
2021/07/04 01:40:42;;;;;;;19.60;18.50;;;18.10;99.90;;;;;;5112477;28;20449;-75
2021/07/04 01:43:09;;;;;;;21.07;19.63;;;18.10;99.90;;;;;;5112182;28;20456;-75
2021/07/04 01:45:37;;;;;;;21.60;20.03;;;18.00;99.90;;;;;;5111998;28;20485;-75
2021/07/04 01:48:05;;;;;;;20.53;19.30;;;18.00;99.90;;;;;;5112349;28;20477;-75
2021/07/04 01:50:35;;;;;;;19.93;18.73;;;18.00;99.90;;;;;;5112550;28;20454;-75
2021/07/04 01:53:03;;;;;;;20.73;19.37;;;18.00;99.90;;;;;;5112322;28;20457;-75
2021/07/04 01:55:29;;;;;;;20.17;18.97;;;18.00;99.90;;;;;;5112468;28;20506;-75
2021/07/04 01:57:58;;;;;;;20.40;19.17;;;18.00;99.90;;;;;;5112329;28;20469;-75
2021/07/04 02:00:27;;;;;;;20.37;19.27;;;18.10;99.90;;;;;;5112086;28;20441;-76
2021/07/04 02:02:56;;;;;;;20.57;19.37;;;18.10;99.90;;;;;;5111971;28;20838;-76
2021/07/04 02:05:23;;;;;;;20.20;18.90;;;18.00;99.90;;;;;;5111835;28;20663;-77
2021/07/04 02:07:51;;;;;;;20.27;18.97;;;18.00;99.90;;;;;;5111778;28;20485;-76
2021/07/04 02:10:20;;;;;;;20.13;18.63;;;18.00;99.90;;;;;;5111976;28;20449;-78
2021/07/04 02:12:47;;;;;;;19.10;18.00;;;17.90;99.90;;;;;;5111893;28;20472;-77
2021/07/04 02:15:18;;;;;;;18.97;17.87;;;17.90;99.90;;;;;;5112123;28;20445;-77
2021/07/04 02:17:45;;;;;;;19.00;18.00;;;17.90;99.90;;;;;;5111987;28;20449;-78
2021/07/04 02:20:32;;;;;;;19.87;18.37;;;17.80;99.90;;;;;;5111594;28;20452;-76
2021/07/04 02:23:00;;;;;;;20.73;19.43;;;17.70;99.90;;;;;;5111818;28;20453;-77
2021/07/04 02:25:27;;;;;;;19.00;17.90;;;17.70;99.90;;;;;;5111572;28;20450;-76
2021/07/04 02:27:54;;;;;;;20.17;18.77;;;17.70;99.90;;;;;;5111310;28;20484;-77
2021/07/04 02:30:23;;;;;;;20.57;19.20;;;17.70;99.90;;;;;;5111564;28;20720;-77
2021/07/04 02:32:50;;;;;;;20.33;19.17;;;17.70;99.90;;;;;;5111267;28;20943;-77
2021/07/04 02:35:17;;;;;;;19.50;18.20;;;17.50;99.90;;;;;;5111620;28;20451;-77
2021/07/04 02:37:44;;;;;;;20.03;18.83;;;17.50;99.90;;;;;;5111200;28;20490;-76
2021/07/04 02:40:11;;;;;;;20.07;18.97;;;17.50;99.90;;;;;;5111190;28;20442;-77
2021/07/04 02:42:38;;;;;;;20.30;19.00;;;17.40;99.90;;;;;;5111240;28;20450;-77
2021/07/04 02:45:05;;;;;;;19.73;18.13;;;17.40;99.90;;;;;;5110785;28;20807;-76
2021/07/04 02:47:34;;;;;;;20.60;19.30;;;17.40;99.90;;;;;;5111121;28;20569;-75
2021/07/04 02:50:00;;;;;;;20.00;18.80;;;17.40;99.90;;;;;;5110808;28;20842;-75
2021/07/04 02:52:27;;;;;;;20.20;18.70;;;17.40;99.90;;;;;;5111305;28;20456;-75
2021/07/04 02:54:54;;;;;;;20.73;19.33;;;17.40;99.90;;;;;;5110684;28;20518;-76
2021/07/04 02:57:21;;;;;;;21.13;19.53;;;17.40;99.90;;;;;;5110774;28;20767;-75
2021/07/04 02:59:47;;;;;;;19.93;18.73;;;17.30;99.90;;;;;;5110954;28;20457;-76
2021/07/04 03:02:14;;;;;;;21.20;19.53;;;17.30;99.90;;;;;;5110797;28;20453;-75
2021/07/04 03:04:42;;;;;;;20.23;18.70;;;17.30;99.90;;;;;;5110860;28;20519;-78
2021/07/04 03:07:09;;;;;;;21.23;19.93;;;17.30;99.90;;;;;;5110829;28;20483;-77
2021/07/04 03:09:35;;;;;;;20.93;19.77;;;17.40;99.90;;;;;;5110675;28;20959;-78
2021/07/04 03:12:04;;;;;;;20.07;18.77;;;17.40;99.90;;;;;;5110659;28;20445;-78
2021/07/04 03:14:30;;;;;;;19.67;18.47;;;17.50;99.90;;;;;;5110624;28;20453;-76
2021/07/04 03:16:57;;;;;;;18.50;17.30;;;17.50;99.90;;;;;;5110983;28;20490;-78
2021/07/04 03:19:24;;;;;;;18.40;17.23;;;17.60;99.90;;;;;;5110562;28;20464;-78
2021/07/04 03:21:52;;;;;;;19.70;18.50;;;17.60;99.90;;;;;;5110377;28;21149;-76
2021/07/04 03:24:19;;;;;;;18.60;17.23;;;17.60;99.90;;;;;;5110197;28;20441;-76
2021/07/04 03:26:45;;;;;;;18.67;17.67;;;17.70;99.90;;;;;;5110674;28;20453;-76
2021/07/04 03:29:12;;;;;;;20.17;18.93;;;17.70;99.90;;;;;;5110577;28;20485;-77
2021/07/04 03:31:39;;;;;;;18.40;17.40;;;17.70;99.90;;;;;;5110160;28;20449;-76
2021/07/04 03:34:05;;;;;;;17.80;16.70;;;17.80;99.90;;;;;;5110329;28;20573;-77
2021/07/04 03:36:32;;;;;;;19.40;18.33;;;17.80;99.90;;;;;;5110572;28;20449;-77
2021/07/04 03:39:00;;;;;;;19.43;18.30;;;17.80;99.90;;;;;;5110323;28;20445;-76
2021/07/04 03:41:27;;;;;;;19.07;17.77;;;17.80;99.90;;;;;;5110530;28;20438;-76
2021/07/04 03:43:53;;;;;;;20.07;18.53;;;17.80;99.90;;;;;;5110233;28;20505;-74
2021/07/04 03:46:22;;;;;;;19.57;18.27;;;17.90;99.90;;;;;;5109863;28;21021;-75
2021/07/04 03:48:48;;;;;;;19.87;18.67;;;17.90;99.90;;;;;;5102573;28;20562;-75
2021/07/04 03:51:15;;;;;;;20.20;18.70;;;17.90;99.90;;;;;;5103870;28;20506;-75
2021/07/04 03:53:42;;;;;;;20.73;19.23;;;17.90;99.90;;;;;;5089970;28;20474;-74
2021/07/04 03:56:10;;;;;;;20.50;19.10;;;18.00;99.90;;;;;;5071725;28;20975;-75
2021/07/04 03:58:36;;;;;;;21.53;19.70;;;18.00;99.90;;;;;;5110118;28;20445;-75
2021/07/04 04:01:03;;;;;;;21.13;19.60;;;18.00;99.90;;;;;;5109910;28;20456;-75
2021/07/04 04:03:30;;;;;;;20.40;19.13;;;18.10;99.90;;;;;;5110403;28;20958;-75
2021/07/04 04:05:57;;;;;;;21.27;19.80;;;18.10;99.90;;;;;;5098366;28;20438;-75
2021/07/04 04:08:24;;;;;;;20.50;19.17;;;18.10;99.90;;;;;;5093110;28;20826;-75
2021/07/04 04:10:51;;;;;;;19.83;18.47;;;18.20;99.90;;;;;;5093784;28;20518;-75
2021/07/04 04:13:20;;;;;;;20.50;19.17;;;18.30;99.90;;;;;;5093448;28;20458;-75
2021/07/04 04:15:47;;;;;;;20.80;19.47;;;18.40;99.90;;;;;;5093975;28;20544;-75
2021/07/04 04:18:14;;;;;;;21.47;20.07;;;18.40;99.90;;;;;;5094055;28;20443;-75
2021/07/04 04:20:41;;;;;;;21.30;19.67;;;18.50;99.90;;;;;;5093456;28;21128;-74
2021/07/04 04:23:08;;;;;;;20.00;18.60;;;18.50;99.90;;;;;;5106609;28;20445;-74
2021/07/04 04:25:35;;;;;;;21.70;20.30;;;18.70;99.90;;;;;;5111743;28;20449;-75
2021/07/04 04:28:04;;;;;;;20.33;19.03;;;18.70;99.90;;;;;;5093557;28;20496;-75
2021/07/04 04:30:32;;;;;;;19.37;18.17;;;18.70;99.90;;;;;;5093790;28;20454;-75
2021/07/04 04:32:59;;;;;;;20.23;18.93;;;18.90;99.90;;;;;;5093497;28;20943;-75
2021/07/04 04:35:25;;;;;;;19.97;18.67;;;19.00;99.90;;;;;;5093180;28;20469;-74
2021/07/04 04:37:52;;;;;;;20.70;19.23;;;19.00;99.90;;;;;;5093055;28;20473;-74
2021/07/04 04:40:19;;;;;;;19.97;18.77;;;19.00;99.90;;;;;;5093045;28;20492;-74
2021/07/04 04:42:45;;;;;;;19.37;18.27;;;19.00;99.90;;;;;;5093549;28;20486;-74
2021/07/04 04:45:12;;;;;;;19.37;17.97;;;19.00;99.90;;;;;;5093077;28;21002;-74
2021/07/04 04:47:41;;;;;;;18.03;16.93;;;19.10;99.90;;;;;;5092766;28;20481;-74
2021/07/04 04:50:08;;;;;;;17.50;16.63;;;19.20;99.90;;;;;;5092937;28;20434;-75
2021/07/04 04:52:35;;;;;;;17.57;16.73;;;19.30;99.90;;;;;;5092985;28;20731;-75
2021/07/04 04:55:03;;;;;;;18.17;17.17;;;19.20;99.90;;;;;;5092928;28;20446;-74
2021/07/04 04:57:30;;;;;;;17.73;16.53;;;19.20;99.90;;;;;;5092734;28;20455;-74
2021/07/04 04:59:57;;;;;;;17.93;16.73;;;19.20;99.90;;;;;;5092358;28;20487;-74
2021/07/04 05:02:23;;;;;;;17.20;16.20;;;19.10;99.90;;;;;;5092397;28;20532;-74
2021/07/04 05:04:52;;;;;;;18.93;17.73;;;19.10;99.90;;;;;;5092711;28;20495;-73
2021/07/04 05:07:18;;;;;;;18.57;17.10;;;19.10;99.90;;;;;;5092434;28;20477;-74
2021/07/04 05:09:45;;;;;;;16.87;15.87;;;19.20;99.90;;;;;;5092375;28;20482;-74
2021/07/04 05:12:12;;;;;;;17.67;16.67;;;19.20;99.90;;;;;;5092501;28;20519;-74
2021/07/04 05:14:39;;;;;;;17.10;16.20;;;19.20;99.90;;;;;;5092537;28;20477;-74
2021/07/04 05:17:05;;;;;;;15.97;15.07;;;19.20;99.90;;;;;;5092542;28;20442;-74
2021/07/04 05:19:32;;;;;;;17.10;16.07;;;19.20;99.90;;;;;;5092358;28;20799;-74
2021/07/04 05:22:00;;;;;;;17.63;16.63;;;19.30;99.90;;;;;;5092515;28;20454;-74
2021/07/04 05:24:27;;;;;;;17.57;16.50;;;19.30;99.90;;;;;;5092494;28;20936;-74
2021/07/04 05:26:53;;;;;;;17.20;16.30;;;19.40;99.90;;;;;;5092285;28;20464;-75
2021/07/04 05:29:20;;;;;;;17.07;15.97;;;19.40;99.90;;;;;;5092221;28;20488;-74
2021/07/04 05:31:47;;;;;;;17.57;16.40;;;19.50;99.90;;;;;;5092135;28;20450;-75
2021/07/04 05:34:14;;;;;;;18.00;17.00;;;19.60;99.90;;;;;;5092527;28;20812;-75
2021/07/04 05:36:44;;;;;;;18.77;17.53;;;19.60;99.90;;;;;;5092093;28;20450;-75
2021/07/04 05:39:12;;;;;;;15.93;15.23;;;19.60;99.90;;;;;;5092053;28;20438;-76
2021/07/04 05:41:39;;;;;;;17.67;16.67;;;19.60;99.90;;;;;;5092110;28;20458;-76
2021/07/04 05:44:06;;;;;;;16.97;15.80;;;19.60;99.90;;;;;;5092226;28;20450;-76
2021/07/04 05:46:34;;;;;;;16.70;15.73;;;19.70;99.90;;;;;;5091496;28;20853;-76
2021/07/04 05:49:01;;;;;;;16.13;15.23;;;20.20;99.90;;;;;;5092157;28;20482;-76
2021/07/04 05:51:28;;;;;;;16.93;15.97;;;20.60;99.90;;;;;;5092242;28;20447;-74
2021/07/04 05:53:55;;;;;;;16.70;15.70;;;21.30;99.90;;;;;;5091736;28;20446;-76
2021/07/04 05:56:23;;;;;;;16.03;15.20;;;21.80;99.90;;;;;;5091563;28;20845;-74
2021/07/04 05:58:49;;;;;;;16.80;15.30;;;22.20;99.90;;;;;;5091557;28;20447;-74
2021/07/04 06:01:16;;;;;;;16.87;15.87;;;22.40;99.90;;;;;;5092015;28;20454;-74
2021/07/04 06:03:43;;;;;;;16.47;15.40;;;22.60;99.90;;;;;;5091834;28;20798;-74
2021/07/04 06:06:09;;;;;;;16.10;15.17;;;22.80;99.90;;;;;;5091586;28;20472;-74
2021/07/04 06:08:36;;;;;;;16.90;15.93;;;23.10;99.90;;;;;;5091221;28;20497;-74
2021/07/04 06:11:03;;;;;;;16.73;15.80;;;23.10;99.90;;;;;;5091707;28;20499;-74
2021/07/04 06:13:31;;;;;;;15.70;14.90;;;22.50;99.90;;;;;;5091594;28;20457;-74
2021/07/04 06:15:57;;;;;;;16.20;15.40;;;22.40;99.90;;;;;;5091320;28;20450;-75
2021/07/04 06:18:25;;;;;;;15.23;14.43;;;22.30;99.90;;;;;;5091258;28;20457;-74
2021/07/04 06:20:51;;;;;;;16.00;15.10;;;22.20;99.90;;;;;;5091567;28;20462;-74
2021/07/04 06:23:18;;;;;;;16.00;15.20;;;22.50;99.90;;;;;;5091010;28;20457;-75
2021/07/04 06:25:46;;;;;;;16.13;15.13;;;22.60;99.90;;;;;;5091493;28;20446;-74
2021/07/04 06:28:13;;;;;;;16.57;15.57;;;22.90;99.90;;;;;;5091025;28;20478;-74
2021/07/04 06:30:41;;;;;;;14.77;14.07;;;23.30;99.90;;;;;;5090389;28;20472;-75
2021/07/04 06:33:07;;;;;;;15.60;14.80;;;23.60;99.90;;;;;;5091024;28;21000;-75
2021/07/04 06:35:34;;;;;;;15.10;14.40;;;23.70;99.90;;;;;;5091013;28;20457;-75
2021/07/04 06:38:01;;;;;;;15.10;14.30;;;24.10;99.90;;;;;;5091405;28;20450;-75
2021/07/04 06:40:27;;;;;;;15.73;14.93;;;24.70;99.90;;;;;;5091420;28;20449;-77
2021/07/04 06:42:54;;;;;;;15.30;14.60;;;25.30;99.90;;;;;;5090895;28;20821;-77
2021/07/04 06:45:21;;;;;;;14.87;14.20;;;25.10;99.90;;;;;;5090440;28;20485;-78
2021/07/04 06:47:50;;;;;;;16.23;15.43;;;25.60;99.90;;;;;;5090687;28;20454;-76
2021/07/04 06:50:19;;;;;;;16.67;15.40;;;25.80;99.90;;;;;;5090810;28;20514;-74
2021/07/04 06:52:46;;;;;;;15.63;14.53;;;25.90;99.90;;;;;;5090600;28;20948;-75
2021/07/04 06:55:13;;;;;;;14.50;13.80;;;25.90;99.90;;;;;;5090842;28;20496;-77
2021/07/04 06:57:40;;;;;;;16.10;14.80;;;26.00;99.90;;;;;;5090580;28;20447;-76
2021/07/04 07:00:08;;;;;;;15.83;14.93;;;26.10;99.90;;;;;;5090444;28;20453;-77
2021/07/04 07:02:35;;;;;;;15.17;14.47;;;25.70;99.90;;;;;;5090214;28;20617;-77
2021/07/04 07:05:04;;;;;;;14.63;13.93;;;25.70;99.90;;;;;;5090438;28;20473;-77
2021/07/04 07:07:31;;;;;;;15.60;14.90;;;25.70;99.90;;;;;;5090956;28;20446;-76
2021/07/04 07:09:57;;;;;;;14.53;13.90;;;25.70;99.90;;;;;;5090841;28;20505;-77
2021/07/04 07:12:24;;;;;;;14.77;14.07;;;25.70;99.90;;;;;;5090383;28;20939;-78
2021/07/04 07:14:51;;;;;;;14.60;13.80;;;25.50;99.90;;;;;;5089940;28;20725;-77
2021/07/04 07:17:19;;;;;;;14.33;13.67;;;25.00;99.90;;;;;;5090304;28;20451;-77
2021/07/04 07:19:46;;;;;;;15.23;14.43;;;25.40;99.90;;;;;;5090515;28;20452;-76
2021/07/04 07:22:14;;;;;;;15.50;14.60;;;25.80;99.90;;;;;;5090636;28;20457;-76
2021/07/04 07:24:41;;;;;;;14.80;14.10;;;26.10;99.90;;;;;;5090246;28;20450;-77
2021/07/04 07:27:08;;;;;;;15.53;14.80;;;26.40;99.90;;;;;;5089721;28;20503;-77
2021/07/04 07:29:35;;;;;;;15.13;14.53;;;26.40;99.90;;;;;;5089797;28;20482;-77
2021/07/04 07:32:01;;;;;;;15.10;14.40;;;26.10;99.90;;;;;;5090145;28;20453;-76
2021/07/04 07:34:28;;;;;;;14.67;13.97;;;26.70;99.90;;;;;;5090190;28;20449;-76
2021/07/04 07:36:55;;;;;;;15.67;14.77;;;27.40;99.60;;;;;;5085932;28;20934;-76
2021/07/04 07:39:23;;;;;;;14.20;13.60;;;28.60;98.30;;;;;;5098921;28;20438;-78
2021/07/04 07:41:50;;;;;;;14.80;14.10;;;29.80;95.60;;;;;;5100640;28;20448;-77
2021/07/04 07:44:17;;;;;;;14.93;14.20;;;29.80;94.40;;;;;;5110268;28;20445;-77
2021/07/04 07:46:44;;;;;;;15.27;14.43;;;29.80;94.10;;;;;;5093909;28;20565;-77
2021/07/04 07:49:10;;;;;;;15.50;14.70;;;28.90;95.00;;;;;;5089663;28;20474;-77
2021/07/04 07:51:37;;;;;;;15.10;14.30;;;28.10;96.50;;;;;;5090092;28;20442;-79
2021/07/04 07:54:05;;;;;;;14.97;14.37;;;27.50;97.40;;;;;;5095947;28;20456;-77
2021/07/04 07:56:33;;;;;;;15.53;14.83;;;27.00;97.90;;;;;;5110093;28;20446;-78
2021/07/04 07:59:00;;;;;;;15.70;14.90;;;26.40;98.50;;;;;;5110892;28;20628;-84
2021/07/04 08:01:27;;;;;;;15.30;14.60;;;26.30;99.60;;;;;;5111096;28;20445;-81
2021/07/04 08:03:54;;;;;;;16.20;15.30;;;26.90;98.10;;;;;;5110228;28;20849;-82
2021/07/04 08:06:20;;;;;;;14.97;14.27;;;27.60;96.70;;;;;;5110231;28;20452;-80
2021/07/04 08:08:47;;;;;;;14.93;14.23;;;28.10;95.60;;;;;;5110232;28;20590;-80
2021/07/04 08:11:14;;;;;;;14.27;13.67;;;28.60;94.30;;;;;;5102686;28;20442;-81
2021/07/04 08:13:42;;;;;;;14.60;13.90;;;29.00;93.50;;;;;;5089780;28;20454;-79
2021/07/04 08:16:08;;;;;;;14.40;13.70;;;28.90;93.50;;;;;;5088887;28;20446;-78
2021/07/04 08:18:35;;;;;;;15.27;14.50;;;29.30;92.80;;;;;;5089072;28;20446;-78
2021/07/04 08:21:02;;;;;;;15.47;14.70;;;29.40;92.10;;;;;;5089668;28;20450;-78
2021/07/04 08:23:29;;;;;;;14.90;14.23;;;30.10;91.40;;;;;;5090075;28;20951;-81
2021/07/04 08:25:55;;;;;;;15.67;14.97;;;30.90;90.00;;;;;;5089929;28;20788;-83
2021/07/04 08:28:22;;;;;;;15.10;14.40;;;31.60;88.10;;;;;;5089606;28;20964;-82
2021/07/04 08:30:50;;;;;;;15.47;14.77;;;31.50;87.70;;;;;;5089855;28;20493;-79
2021/07/04 08:33:17;;;;;;;15.17;14.40;;;31.40;87.60;;;;;;5089833;28;20488;-77
2021/07/04 08:35:44;;;;;;;15.57;14.80;;;31.70;87.30;;;;;;5089639;28;20454;-77
2021/07/04 08:38:10;;;;;;;15.43;14.73;;;32.50;84.40;;;;;;5089443;28;20469;-75
2021/07/04 08:40:37;;;;;;;14.80;14.20;;;33.10;81.70;;;;;;5089715;28;20445;-76
2021/07/04 08:43:06;;;;;;;16.73;15.90;;;33.70;79.20;;;;;;5089344;28;20446;-76
2021/07/04 08:45:36;;;;;;;15.77;15.17;;;34.10;77.20;;;;;;5098133;28;20584;-76
2021/07/04 08:48:05;;;;;;;16.30;15.60;;;34.40;75.30;;;;;;5109809;28;20453;-82
2021/07/04 08:50:33;;;;;;;16.10;15.30;;;33.90;75.70;;;;;;5109392;28;20488;-79
2021/07/04 08:53:00;;;;;;;17.50;16.70;;;33.70;77.10;;;;;;5111086;28;20468;-78
2021/07/04 08:55:27;;;;;;;16.90;16.13;;;34.30;74.30;;;;;;5113707;28;20502;-79
2021/07/04 08:57:56;;;;;;;16.17;15.53;;;34.70;72.10;;;;;;5113242;28;20452;-78
2021/07/04 09:00:25;;;;;;;15.57;14.97;;;33.80;72.20;;;;;;5113325;28;20449;-77
2021/07/04 09:02:51;;;;;;;15.37;14.63;;;32.70;75.00;;;;;;5113134;28;20713;-78
2021/07/04 09:05:19;;;;;;;15.80;15.10;;;32.70;75.20;;;;;;5113121;28;20945;-78
2021/07/04 09:07:46;;;;;;;14.60;13.90;;;33.30;73.90;;;;;;5112605;28;20468;-79
2021/07/04 09:10:15;;;;;;;14.73;14.00;;;33.40;72.50;;;;;;5111269;28;20489;-78
2021/07/04 09:12:44;;;;;;;15.67;14.97;;;33.50;71.60;;;;;;5113413;28;20460;-77
2021/07/04 09:15:14;;;;;;;14.30;13.70;;;32.30;72.80;;;;;;5113026;28;20449;-77
2021/07/04 09:17:44;;;;;;;14.27;13.67;;;31.30;77.90;;;;;;5113018;28;20457;-78
2021/07/04 09:20:15;;;;;;;13.93;13.33;;;30.90;78.30;;;;;;5113144;28;20852;-77
2021/07/04 09:22:46;;;;;;;15.70;14.90;;;31.00;78.80;;;;;;5112994;28;20959;-78
2021/07/04 09:25:14;;;;;;;14.87;14.27;;;30.90;79.80;;;;;;5113144;28;20449;-78
2021/07/04 09:27:43;;;;;;;13.07;12.57;;;30.90;79.40;;;;;;5113473;28;20452;-78
2021/07/04 09:30:15;;;;;;;14.50;13.80;;;30.30;78.90;;;;;;5112381;28;20484;-78
2021/07/04 09:32:47;;;;;;;14.07;13.47;;;29.50;83.20;;;;;;5112933;28;20498;-78
2021/07/04 09:35:16;;;;;;;15.10;14.50;;;29.50;83.00;;;;;;5112771;28;20471;-78
2021/07/04 09:37:48;;;;;;;14.80;14.10;;;29.60;82.00;;;;;;5112932;28;20460;-78
2021/07/04 09:40:18;;;;;;;13.70;13.10;;;29.60;84.00;;;;;;5112271;28;20433;-77
2021/07/04 09:43:00;;;;;;;14.10;13.50;;;29.80;83.20;;;;;;5112833;28;21037;-76
2021/07/04 09:45:39;;;;;;;14.63;13.93;;;29.70;83.60;;;;;;5104038;28;20474;-77
2021/07/04 09:48:06;;;;;;;14.30;13.70;;;29.60;83.70;;;;;;5091768;28;20453;-77
2021/07/04 09:50:38;;;;;;;14.63;14.00;;;29.40;84.10;;;;;;5092535;28;20875;-78
2021/07/04 09:53:07;;;;;;;13.50;12.90;;;28.80;86.50;;;;;;5091654;28;20979;-77
2021/07/04 09:55:34;;;;;;;13.10;12.60;;;28.60;87.00;;;;;;5092165;28;20446;-77
2021/07/04 09:58:03;;;;;;;13.37;12.77;;;28.50;85.60;;;;;;5091629;28;20453;-78
2021/07/04 10:00:32;;;;;;;13.43;12.83;;;28.60;85.80;;;;;;5092116;28;20445;-78
2021/07/04 10:03:12;;;;;;;13.60;13.00;;;29.10;83.90;;;;;;5091907;28;20446;-77
2021/07/04 10:05:40;;;;;;;14.20;13.57;;;29.10;84.20;;;;;;5092139;28;20478;-77
2021/07/04 10:08:26;;;;;;;14.57;13.97;;;29.80;82.50;;;;;;5091374;28;20492;-78
2021/07/04 10:10:55;;;;;;;13.53;12.90;;;30.80;79.40;;;;;;5091690;28;20477;-78
2021/07/04 10:13:22;;;;;;;14.20;13.57;;;31.40;76.90;;;;;;5091782;28;20450;-79
2021/07/04 10:15:49;;;;;;;14.07;13.53;;;31.50;77.30;;;;;;5091817;28;20446;-76
2021/07/04 10:18:18;;;;;;;13.33;12.83;;;31.30;77.60;;;;;;5091833;28;20446;-77
2021/07/04 10:20:46;;;;;;;14.00;13.40;;;30.80;78.90;;;;;;5091831;28;20528;-77
2021/07/04 10:23:17;;;;;;;14.10;13.40;;;30.50;81.00;;;;;;5091751;28;20458;-77
2021/07/04 10:25:45;;;;;;;13.67;13.13;;;30.00;82.50;;;;;;5091690;28;20932;-76
2021/07/04 10:28:15;;;;;;;13.70;13.10;;;29.90;83.00;;;;;;5091412;28;20454;-77
2021/07/04 10:30:42;;;;;;;14.30;13.70;;;30.20;82.80;;;;;;5091697;28;20485;-77
2021/07/04 10:33:19;;;;;;;13.73;13.20;;;29.90;82.00;;;;;;5091328;28;20467;-76
2021/07/04 10:36:04;;;;;;;13.20;12.70;;;29.50;84.10;;;;;;5091312;28;20481;-76
2021/07/04 10:38:49;;;;;;;13.80;13.30;;;29.20;84.70;;;;;;5090637;28;20860;-73
2021/07/04 10:41:20;;;;;;;13.53;12.93;;;28.80;85.50;;;;;;5090629;28;20477;-75
2021/07/04 10:43:56;;;;;;;14.03;13.23;;;28.10;88.10;;;;;;5091476;28;20434;-76
2021/07/04 10:47:16;;;;;;;14.70;13.90;;;28.10;88.80;;;;;;5103428;28;20482;-75
2021/07/04 10:49:55;;;;;;;13.23;12.57;;;28.30;89.20;;;;;;5095498;28;21029;-76
2021/07/04 10:52:40;;;;;;;13.33;12.80;;;28.40;89.00;;;;;;5106812;28;21027;-75
2021/07/04 10:55:11;;;;;;;14.00;13.43;;;28.80;86.90;;;;;;5111136;28;20456;-76
2021/07/04 10:57:54;;;;;;;14.40;13.90;;;29.30;83.80;;;;;;5111071;28;20458;-76
2021/07/04 11:00:27;;;;;;;14.10;13.50;;;28.90;86.30;;;;;;5110997;28;21169;-75
2021/07/04 11:02:56;;;;;;;13.27;12.77;;;28.90;84.70;;;;;;5110898;28;20446;-75
2021/07/04 11:05:48;;;;;;;14.40;13.80;;;28.60;87.30;;;;;;5111181;28;20846;-76
2021/07/04 11:08:24;;;;;;;14.10;13.40;;;29.20;85.00;;;;;;5111519;28;20445;-75
2021/07/04 11:10:58;;;;;;;13.50;12.87;;;29.40;84.50;;;;;;5111009;28;20748;-76
2021/07/04 11:13:49;;;;;;;13.93;13.43;;;29.30;84.20;;;;;;5111170;28;20464;-76
2021/07/04 11:16:22;;;;;;;12.93;12.43;;;29.30;85.00;;;;;;5110854;28;20442;-76
2021/07/04 11:18:52;;;;;;;14.40;13.80;;;28.90;85.20;;;;;;5111150;28;20452;-76
2021/07/04 11:21:20;;;;;;;14.30;13.70;;;28.90;86.20;;;;;;5110950;28;20450;-76
2021/07/04 11:24:07;;;;;;;14.27;13.70;;;29.40;85.20;;;;;;5110919;28;20954;-76
2021/07/04 11:26:35;;;;;;;14.50;13.90;;;30.10;83.00;;;;;;5110698;28;20454;-76
2021/07/04 11:29:11;;;;;;;14.30;13.70;;;30.30;82.10;;;;;;5111135;28;20445;-77
2021/07/04 11:31:40;;;;;;;13.90;13.30;;;29.90;82.90;;;;;;5111088;28;20461;-77
2021/07/04 11:34:08;;;;;;;12.97;12.47;;;30.00;81.50;;;;;;5110960;28;20454;-78
2021/07/04 11:36:35;;;;;;;15.00;14.30;;;30.40;81.00;;;;;;5110778;28;21003;-77
2021/07/04 11:39:06;;;;;;;14.60;14.00;;;31.20;79.60;;;;;;5110967;28;20451;-77
2021/07/04 11:41:36;;;;;;;15.03;14.43;;;31.70;77.40;;;;;;5110845;28;20461;-78
2021/07/04 11:44:05;;;;;;;13.20;12.70;;;32.10;76.80;;;;;;5110700;28;20445;-77
2021/07/04 11:46:34;;;;;;;13.53;13.03;;;31.60;75.90;;;;;;5110521;28;20485;-77
2021/07/04 11:49:05;;;;;;;14.30;13.67;;;31.30;77.20;;;;;;5110994;28;20446;-77
2021/07/04 11:51:35;;;;;;;13.80;13.30;;;31.50;74.40;;;;;;5110752;28;20485;-77
2021/07/04 11:54:05;;;;;;;13.83;13.33;;;30.80;75.40;;;;;;5110841;28;20498;-77
2021/07/04 11:56:32;;;;;;;14.43;13.93;;;30.20;77.20;;;;;;5110499;28;20453;-76
2021/07/04 11:59:12;;;;;;;13.47;12.97;;;29.80;78.00;;;;;;5110562;28;20837;-76
2021/07/04 12:01:53;;;;;;;14.17;13.57;;;30.10;79.70;;;;;;5110505;28;20449;-76
2021/07/04 12:04:30;;;;;;;13.70;13.10;;;29.90;79.60;;;;;;5110408;28;20445;-76
2021/07/04 12:06:59;;;;;;;12.80;12.30;;;29.80;81.60;;;;;;5110410;28;20452;-77
2021/07/04 12:09:41;;;;;;;14.03;13.43;;;29.80;81.30;;;;;;5110475;28;20931;-76
2021/07/04 12:12:15;;;;;;;14.00;13.50;;;29.70;81.30;;;;;;5110534;28;20433;-76
2021/07/04 12:14:44;;;;;;;15.60;14.80;;;29.80;81.50;;;;;;5110578;28;20480;-77
2021/07/04 12:17:31;;;;;;;14.03;13.43;;;29.90;81.20;;;;;;5110836;28;20834;-77
2021/07/04 12:20:07;;;;;;;13.60;12.90;;;29.60;82.20;;;;;;5110733;28;20510;-77
2021/07/04 12:22:37;;;;;;;13.70;13.10;;;29.60;82.20;;;;;;5110453;28;20636;-77
2021/07/04 12:25:16;;;;;;;14.60;14.00;;;29.40;82.70;;;;;;5110333;28;20522;-77
2021/07/04 12:27:45;;;;;;;14.27;13.67;;;29.30;82.50;;;;;;5111341;28;20516;-77
2021/07/04 12:30:17;;;;;;;13.27;12.73;;;29.30;82.70;;;;;;5113987;28;20483;-77
2021/07/04 12:32:46;;;;;;;14.00;13.40;;;29.70;82.00;;;;;;5114131;28;20930;-78
2021/07/04 12:35:29;;;;;;;13.50;12.90;;;29.90;81.70;;;;;;5113981;28;20449;-77